createdAt,value
2023-05-09T00:00:41.228Z,44.90
2023-05-09T00:03:12.193Z,44.98
2023-05-09T00:05:42.850Z,45.29
2023-05-09T00:08:15.671Z,44.96
2023-05-09T00:10:45.835Z,45.20
2023-05-09T00:13:16.025Z,45.49
2023-05-09T00:15:46.905Z,45.34
2023-05-09T00:18:18.232Z,45.00
2023-05-09T00:20:48.396Z,45.42
2023-05-09T00:23:21.230Z,45.40
2023-05-09T00:25:51.398Z,45.64
2023-05-09T00:28:21.600Z,46.01
2023-05-09T00:30:51.734Z,46.31
2023-05-09T00:33:22.573Z,45.83
2023-05-09T00:35:52.669Z,45.87
2023-05-09T00:38:26.387Z,46.23
2023-05-09T00:40:57.066Z,46.39
2023-05-09T00:43:27.268Z,46.57
2023-05-09T00:45:57.450Z,46.31
2023-05-09T00:48:27.617Z,46.41
2023-05-09T00:50:57.790Z,46.58
2023-05-09T00:53:31.028Z,46.33
2023-05-09T00:56:01.311Z,46.25
2023-05-09T00:58:31.713Z,46.11
2023-05-09T01:01:02.511Z,45.87
2023-05-09T01:03:33.164Z,45.92
2023-05-09T01:06:07.678Z,46.14
2023-05-09T01:08:49.107Z,45.98
2023-05-09T01:11:26.131Z,45.78
2023-05-09T01:14:04.532Z,45.93
2023-05-09T01:16:40.056Z,46.51
2023-05-09T01:19:18.749Z,46.73
2023-05-09T01:21:50.733Z,46.91
2023-05-09T01:24:34.325Z,46.99
2023-05-09T01:27:29.304Z,46.67
2023-05-09T01:30:03.517Z,47.03
2023-05-09T01:32:35.629Z,47.34
2023-05-09T01:35:07.810Z,47.36
2023-05-09T01:37:44.550Z,47.41
2023-05-09T01:40:17.884Z,47.38
2023-05-09T01:42:50.838Z,46.93
2023-05-09T01:45:24.043Z,46.99
2023-05-09T01:47:54.568Z,47.32
2023-05-09T01:50:25.387Z,47.49
2023-05-09T01:52:59.261Z,47.79
2023-05-09T01:55:33.180Z,47.42
2023-05-09T01:58:04.513Z,47.44
2023-05-09T02:00:38.056Z,47.24
2023-05-09T02:03:08.561Z,47.07
2023-05-09T02:05:40.239Z,47.03
2023-05-09T02:08:12.847Z,47.18
2023-05-09T02:10:43.304Z,46.89
2023-05-09T02:13:13.533Z,46.96
2023-05-09T02:15:47.032Z,47.00
2023-05-09T02:18:17.255Z,47.09
2023-05-09T02:20:47.497Z,47.41
2023-05-09T02:23:17.797Z,47.04
2023-05-09T02:25:48.865Z,47.63
2023-05-09T02:28:21.370Z,47.43
2023-05-09T02:30:55.361Z,47.60
2023-05-09T02:33:26.222Z,47.26
2023-05-09T02:35:57.015Z,47.37
2023-05-09T02:38:27.459Z,47.32
2023-05-09T02:40:59.072Z,47.57
2023-05-09T02:43:30.162Z,48.09
2023-05-09T02:46:03.005Z,48.04
2023-05-09T02:48:33.218Z,47.90
2023-05-09T02:51:03.367Z,48.25
2023-05-09T02:53:33.610Z,48.12
2023-05-09T02:56:04.156Z,48.10
2023-05-09T02:58:34.334Z,48.21
2023-05-09T03:01:07.193Z,48.64
2023-05-09T03:03:38.309Z,48.63
2023-05-09T03:06:09.068Z,48.67
2023-05-09T03:08:39.376Z,48.61
2023-05-09T03:11:09.586Z,48.71
2023-05-09T03:13:40.219Z,48.65
2023-05-09T03:16:16.724Z,48.50
2023-05-09T03:18:48.047Z,48.62
2023-05-09T03:21:18.158Z,48.76
2023-05-09T03:23:48.400Z,48.84
2023-05-09T03:26:18.568Z,48.68
2023-05-09T03:28:49.521Z,48.49
2023-05-09T03:31:22.397Z,48.62
2023-05-09T03:33:52.622Z,48.64
2023-05-09T03:36:23.509Z,48.46
2023-05-09T03:38:54.050Z,48.50
2023-05-09T03:41:25.286Z,48.25
2023-05-09T03:43:55.842Z,48.53
2023-05-09T03:46:28.688Z,48.30
2023-05-09T03:48:58.968Z,48.55
2023-05-09T03:51:29.392Z,48.11
2023-05-09T03:54:00.471Z,48.00
2023-05-09T03:56:30.835Z,48.17
2023-05-09T03:59:01.001Z,48.08
2023-05-09T04:01:34.309Z,48.30
2023-05-09T04:04:06.173Z,48.10
2023-05-09T04:06:39.157Z,48.09
2023-05-09T04:09:11.899Z,48.04
2023-05-09T04:11:45.076Z,48.43
2023-05-09T04:14:16.579Z,48.36
2023-05-09T04:16:49.496Z,48.45
2023-05-09T04:19:19.698Z,48.28
2023-05-09T04:21:49.904Z,48.32
2023-05-09T04:24:20.340Z,50.11
2023-05-09T04:26:52.357Z,48.57
2023-05-09T04:29:26.398Z,48.56
2023-05-09T04:32:01.380Z,47.80
2023-05-09T04:34:32.405Z,47.93
2023-05-09T04:37:07.801Z,47.83
2023-05-09T04:39:38.097Z,47.81
2023-05-09T04:42:17.080Z,47.79
2023-05-09T04:44:47.897Z,48.91
2023-05-09T04:47:21.423Z,47.71
2023-05-09T04:49:51.516Z,48.01
2023-05-09T04:52:21.729Z,48.04
2023-05-09T04:54:51.921Z,48.61
2023-05-09T04:57:24.844Z,49.14
2023-05-09T04:59:59.774Z,48.32
2023-05-09T05:02:32.717Z,47.93
2023-05-09T05:05:11.651Z,47.30
2023-05-09T05:07:45.033Z,47.37
2023-05-09T05:10:20.516Z,47.04
2023-05-09T05:12:55.090Z,46.75
2023-05-09T05:15:27.081Z,46.62
2023-05-09T05:17:59.969Z,46.41
2023-05-09T05:20:34.589Z,45.79
2023-05-09T05:23:04.969Z,45.72
2023-05-09T05:25:35.667Z,45.60
2023-05-09T05:28:05.857Z,45.55
2023-05-09T05:30:36.120Z,44.80
2023-05-09T05:33:08.947Z,44.94
2023-05-09T05:35:39.671Z,45.01
2023-05-09T05:38:09.884Z,44.49
2023-05-09T05:40:40.880Z,44.19
2023-05-09T05:43:11.668Z,44.61
2023-05-09T05:45:42.452Z,43.96
2023-05-09T05:48:20.061Z,43.29
2023-05-09T05:50:51.051Z,43.38
2023-05-09T05:53:24.561Z,42.67
2023-05-09T05:55:55.164Z,42.58
2023-05-09T05:58:25.408Z,43.45
2023-05-09T06:00:55.764Z,41.61
2023-05-09T06:03:28.728Z,41.57
2023-05-09T06:06:10.379Z,42.17
2023-05-09T06:08:40.525Z,41.92
2023-05-09T06:11:10.626Z,40.25
2023-05-09T06:13:41.732Z,40.20
2023-05-09T06:16:19.670Z,40.88
2023-05-09T06:18:56.165Z,40.09
2023-05-09T06:21:26.925Z,39.66
2023-05-09T06:24:09.755Z,39.32
2023-05-09T06:26:42.311Z,38.75
2023-05-09T06:29:14.446Z,37.60
2023-05-09T06:31:44.705Z,37.71
2023-05-09T06:34:17.481Z,37.11
2023-05-09T06:36:47.668Z,36.87
2023-05-09T06:39:17.861Z,37.39
2023-05-09T06:41:48.225Z,36.27
2023-05-09T06:44:27.300Z,36.27
2023-05-09T06:46:57.554Z,35.74
2023-05-09T06:49:30.367Z,36.38
2023-05-09T06:52:00.493Z,35.22
2023-05-09T06:54:30.699Z,35.71
2023-05-09T06:57:00.936Z,35.75
2023-05-09T06:59:31.145Z,35.25
2023-05-09T07:02:01.313Z,35.83
2023-05-09T07:04:34.119Z,35.53
2023-05-09T07:07:04.354Z,35.88
2023-05-09T07:09:34.539Z,34.97
2023-05-09T07:12:04.727Z,34.49
2023-05-09T07:14:34.853Z,34.48
2023-05-09T07:17:21.296Z,33.98
2023-05-09T07:19:56.290Z,33.74
2023-05-09T07:22:27.768Z,34.01
2023-05-09T07:25:02.258Z,33.67
2023-05-09T07:27:32.434Z,34.00
2023-05-09T07:30:02.549Z,34.18
2023-05-09T07:32:32.767Z,33.13
2023-05-09T07:35:06.068Z,33.13
2023-05-09T07:37:36.941Z,32.72
2023-05-09T07:40:08.508Z,32.22
2023-05-09T07:42:38.711Z,31.16
2023-05-09T07:45:11.390Z,31.63
2023-05-09T07:47:41.586Z,31.24
2023-05-09T07:50:14.719Z,31.67
2023-05-09T07:52:44.907Z,30.88
2023-05-09T07:55:15.293Z,30.14
2023-05-09T07:57:45.579Z,30.37
2023-05-09T08:00:17.659Z,30.25
2023-05-09T08:02:47.822Z,29.56
2023-05-09T08:05:23.724Z,29.74
2023-05-09T08:07:54.009Z,29.80
2023-05-09T08:10:25.182Z,29.54
2023-05-09T08:12:55.616Z,29.06
2023-05-09T08:15:26.211Z,28.75
2023-05-09T08:17:56.466Z,28.35
2023-05-09T08:20:29.324Z,28.16
2023-05-09T08:22:59.474Z,27.18
2023-05-09T08:25:29.785Z,26.74
2023-05-09T08:28:00.046Z,27.16
2023-05-09T08:30:30.517Z,26.26
2023-05-09T08:33:03.154Z,25.99
2023-05-09T08:35:35.915Z,24.15
2023-05-09T08:38:06.111Z,24.39
2023-05-09T08:40:39.000Z,23.20
2023-05-09T08:43:11.945Z,22.52
2023-05-09T08:45:48.462Z,22.04
2023-05-09T08:48:19.311Z,21.60
2023-05-09T08:50:52.800Z,21.28
2023-05-09T08:53:23.654Z,21.11
2023-05-09T08:55:54.239Z,20.84
2023-05-09T08:58:25.456Z,21.20
2023-05-09T09:00:55.938Z,21.16
2023-05-09T09:03:26.883Z,20.78
2023-05-09T09:06:00.162Z,20.77
2023-05-09T09:08:30.836Z,20.92
2023-05-09T09:11:01.113Z,20.18
2023-05-09T09:13:32.306Z,19.89
2023-05-09T09:16:03.808Z,19.72
2023-05-09T09:18:38.174Z,19.94
2023-05-09T09:21:13.544Z,20.17
2023-05-09T09:23:47.608Z,19.83
2023-05-09T09:26:17.953Z,19.66
2023-05-09T09:28:48.108Z,19.94
2023-05-09T09:31:25.174Z,19.28
2023-05-09T09:33:55.326Z,19.63
2023-05-09T09:36:36.888Z,20.17
2023-05-09T09:39:09.411Z,19.49
2023-05-09T09:41:41.618Z,19.29
2023-05-09T09:44:12.229Z,17.95
2023-05-09T09:46:46.814Z,18.69
2023-05-09T09:49:18.331Z,17.34
2023-05-09T09:51:53.104Z,17.44
2023-05-09T09:54:24.172Z,17.19
2023-05-09T09:56:56.793Z,15.82
2023-05-09T09:59:28.043Z,15.77
2023-05-09T10:01:59.628Z,17.23
2023-05-09T10:04:32.706Z,18.50
2023-05-09T10:07:07.526Z,16.78
2023-05-09T10:09:38.528Z,16.31
2023-05-09T10:12:11.164Z,17.65
2023-05-09T10:14:45.425Z,17.35
2023-05-09T10:17:17.911Z,16.04
2023-05-09T10:19:49.441Z,17.07
2023-05-09T10:22:22.715Z,16.85
2023-05-09T10:25:02.550Z,15.29
2023-05-09T10:27:35.198Z,16.53
2023-05-09T10:30:11.384Z,16.55
2023-05-09T10:32:45.556Z,15.54
2023-05-09T10:35:17.521Z,16.25
2023-05-09T10:37:51.449Z,17.41
2023-05-09T10:40:22.678Z,14.91
2023-05-09T10:42:53.065Z,15.81
2023-05-09T10:45:24.529Z,17.08
2023-05-09T10:47:56.753Z,17.33
2023-05-09T10:50:27.504Z,16.99
2023-05-09T10:53:17.964Z,16.88
2023-05-09T10:55:53.728Z,15.75
2023-05-09T10:58:26.958Z,15.69
2023-05-09T11:00:58.642Z,16.01
2023-05-09T11:03:29.770Z,14.95
2023-05-09T11:06:01.381Z,15.26
2023-05-09T11:08:34.753Z,15.10
2023-05-09T11:11:10.132Z,15.81
2023-05-09T11:13:41.189Z,15.13
2023-05-09T11:16:15.027Z,16.29
2023-05-09T11:18:56.188Z,15.23
2023-05-09T11:21:26.479Z,15.21
2023-05-09T11:23:59.254Z,15.19
2023-05-09T11:26:32.822Z,13.97
2023-05-09T11:29:03.133Z,15.13
2023-05-09T11:31:33.490Z,14.56
2023-05-09T11:34:06.624Z,14.31
2023-05-09T11:36:37.149Z,14.80
2023-05-09T11:39:11.770Z,14.09
2023-05-09T11:41:43.413Z,14.24
2023-05-09T11:44:20.948Z,14.95
2023-05-09T11:46:52.088Z,14.78
2023-05-09T11:49:22.448Z,13.70
2023-05-09T11:51:52.671Z,14.32
2023-05-09T11:54:27.604Z,14.58
2023-05-09T11:56:57.887Z,14.11
2023-05-09T11:59:28.112Z,13.26
2023-05-09T12:01:58.393Z,13.24
2023-05-09T12:04:28.613Z,13.85
2023-05-09T12:07:02.047Z,14.60
2023-05-09T12:09:38.173Z,14.09
2023-05-09T12:12:14.837Z,13.73
2023-05-09T12:14:45.011Z,13.34
2023-05-09T12:17:15.317Z,13.49
2023-05-09T12:19:45.532Z,13.31
2023-05-09T12:22:15.702Z,14.40
2023-05-09T12:24:48.476Z,13.80
2023-05-09T12:27:19.024Z,14.10
2023-05-09T12:29:49.292Z,13.84
2023-05-09T12:32:19.685Z,14.56
2023-05-09T12:34:51.802Z,13.81
2023-05-09T12:37:22.538Z,14.05
2023-05-09T12:40:06.768Z,13.83
2023-05-09T12:42:37.874Z,14.17
2023-05-09T12:45:12.007Z,14.05
2023-05-09T12:47:42.407Z,13.63
2023-05-09T12:50:14.631Z,13.91
2023-05-09T12:52:58.525Z,13.36
2023-05-09T12:55:42.634Z,13.89
2023-05-09T12:58:12.806Z,14.60
2023-05-09T13:00:46.594Z,14.08
2023-05-09T13:03:26.812Z,14.84
2023-05-09T13:06:01.151Z,14.31
2023-05-09T13:08:32.058Z,14.83
2023-05-09T13:11:15.648Z,15.25
2023-05-09T13:13:47.062Z,15.01
2023-05-09T13:16:17.942Z,14.93
2023-05-09T13:18:48.509Z,14.54
2023-05-09T13:21:18.631Z,14.47
2023-05-09T13:23:50.355Z,14.86
2023-05-09T13:26:23.266Z,14.70
2023-05-09T13:28:53.476Z,14.29
2023-05-09T13:31:23.836Z,13.96
2023-05-09T13:33:54.434Z,14.01
2023-05-09T13:36:24.626Z,14.24
2023-05-09T13:38:54.804Z,14.15
2023-05-09T13:41:27.830Z,14.27
2023-05-09T13:43:57.955Z,13.97
2023-05-09T13:46:28.153Z,14.03
2023-05-09T13:48:58.313Z,14.63
2023-05-09T13:51:29.280Z,14.12
2023-05-09T13:53:59.558Z,14.04
2023-05-09T13:56:32.389Z,13.81
2023-05-09T13:59:02.555Z,13.92
2023-05-09T14:01:32.754Z,13.81
2023-05-09T14:04:02.979Z,13.95
2023-05-09T14:06:33.432Z,14.36
2023-05-09T14:09:04.277Z,13.80
2023-05-09T14:11:37.043Z,13.37
2023-05-09T14:14:07.322Z,14.25
2023-05-09T14:16:37.490Z,14.31
2023-05-09T14:19:07.821Z,14.07
2023-05-09T14:21:38.037Z,14.32
2023-05-09T14:24:09.387Z,13.93
2023-05-09T14:26:42.264Z,13.76
2023-05-09T14:29:12.593Z,14.22
2023-05-09T14:31:42.684Z,14.48
2023-05-09T14:34:12.938Z,14.46
2023-05-09T14:36:43.110Z,14.36
2023-05-09T14:39:13.432Z,13.91
2023-05-09T14:41:48.983Z,14.21
2023-05-09T14:44:19.835Z,14.68
2023-05-09T14:46:50.279Z,15.06
2023-05-09T14:49:20.484Z,15.49
2023-05-09T14:51:50.734Z,15.00
2023-05-09T14:54:21.048Z,15.47
2023-05-09T14:56:54.047Z,15.83
2023-05-09T14:59:24.406Z,16.14
2023-05-09T15:01:54.611Z,16.54
2023-05-09T15:04:28.439Z,16.40
2023-05-09T15:06:59.181Z,17.39
2023-05-09T15:09:29.700Z,17.54
2023-05-09T15:12:02.431Z,17.52
2023-05-09T15:14:32.615Z,17.20
2023-05-09T15:17:04.460Z,18.37
2023-05-09T15:19:36.652Z,19.38
2023-05-09T15:22:08.839Z,19.92
2023-05-09T15:24:42.851Z,20.40
2023-05-09T15:27:15.615Z,21.23
2023-05-09T15:29:46.858Z,21.81
2023-05-09T15:32:17.003Z,22.38
2023-05-09T15:34:47.280Z,23.23
2023-05-09T15:37:17.793Z,23.16
2023-05-09T15:39:48.211Z,24.20
2023-05-09T15:42:21.606Z,24.61
2023-05-09T15:44:51.907Z,26.00
2023-05-09T15:47:22.615Z,26.14
2023-05-09T15:49:53.517Z,26.09
2023-05-09T15:52:23.715Z,27.59
2023-05-09T15:54:54.267Z,28.00
2023-05-09T15:57:27.107Z,27.79
2023-05-09T15:59:57.388Z,27.08
2023-05-09T16:02:28.671Z,27.75
2023-05-09T16:04:58.898Z,27.89
2023-05-09T16:07:29.254Z,27.82
2023-05-09T16:09:59.403Z,28.87
2023-05-09T16:12:33.019Z,28.86
2023-05-09T16:15:03.280Z,28.87
2023-05-09T16:17:34.454Z,29.70
2023-05-09T16:20:04.950Z,29.37
2023-05-09T16:22:35.122Z,29.45
2023-05-09T16:25:05.277Z,30.20
2023-05-09T16:27:38.137Z,30.42
2023-05-09T16:30:09.748Z,30.78
2023-05-09T16:32:39.945Z,31.06
2023-05-09T16:35:11.229Z,30.61
2023-05-09T16:37:41.589Z,31.20
2023-05-09T16:40:13.548Z,31.11
2023-05-09T16:42:46.453Z,31.41
2023-05-09T16:45:16.602Z,31.63
2023-05-09T16:47:46.837Z,31.17
2023-05-09T16:50:17.293Z,31.53
2023-05-09T16:52:48.215Z,31.60
2023-05-09T16:55:18.739Z,32.25
2023-05-09T16:57:51.532Z,32.09
2023-05-09T17:00:22.883Z,32.10
2023-05-09T17:02:53.115Z,32.40
2023-05-09T17:05:23.384Z,33.05
2023-05-09T17:07:53.583Z,33.10
2023-05-09T17:10:23.933Z,33.01
2023-05-09T17:12:57.527Z,33.44
2023-05-09T17:15:28.633Z,33.55
2023-05-09T17:17:58.839Z,33.75
2023-05-09T17:20:29.248Z,33.56
2023-05-09T17:22:59.482Z,33.35
2023-05-09T17:25:29.635Z,33.71
2023-05-09T17:28:02.492Z,34.26
2023-05-09T17:30:33.392Z,34.36
2023-05-09T17:33:03.653Z,34.46
2023-05-09T17:35:33.848Z,34.92
2023-05-09T17:38:04.011Z,35.26
2023-05-09T17:40:34.119Z,35.40
2023-05-09T17:43:06.884Z,35.16
2023-05-09T17:45:37.016Z,35.84
2023-05-09T17:48:07.305Z,35.55
2023-05-09T17:50:37.506Z,36.16
2023-05-09T17:53:08.942Z,35.71
2023-05-09T17:55:39.149Z,36.02
2023-05-09T17:58:12.364Z,35.86
2023-05-09T18:00:42.522Z,36.43
2023-05-09T18:03:12.844Z,36.40
2023-05-09T18:05:43.203Z,36.41
2023-05-09T18:08:13.439Z,36.93
2023-05-09T18:10:43.992Z,37.23
2023-05-09T18:13:17.335Z,37.07
2023-05-09T18:15:47.541Z,37.47
2023-05-09T18:18:17.808Z,37.40
2023-05-09T18:20:48.110Z,37.41
2023-05-09T18:23:18.399Z,37.44
2023-05-09T18:25:48.590Z,37.68
2023-05-09T18:28:24.811Z,37.73
2023-05-09T18:30:55.024Z,37.39
2023-05-09T18:33:26.096Z,37.33
2023-05-09T18:35:56.891Z,37.60
2023-05-09T18:38:27.479Z,37.92
2023-05-09T18:40:58.080Z,37.99
2023-05-09T18:43:31.171Z,37.85
2023-05-09T18:46:01.455Z,38.30
2023-05-09T18:48:31.682Z,38.38
2023-05-09T18:51:01.856Z,38.34
2023-05-09T18:53:32.939Z,38.23
2023-05-09T18:56:03.131Z,38.75
2023-05-09T18:58:36.060Z,38.66
2023-05-09T19:01:06.579Z,38.53
2023-05-09T19:03:36.739Z,38.67
2023-05-09T19:06:07.798Z,38.90
2023-05-09T19:08:37.909Z,39.05
2023-05-09T19:11:08.074Z,39.01
2023-05-09T19:13:48.538Z,39.14
2023-05-09T19:16:21.891Z,39.18
2023-05-09T19:18:52.315Z,39.27
2023-05-09T19:21:22.497Z,39.33
2023-05-09T19:23:52.758Z,39.60
2023-05-09T19:26:23.589Z,39.50
2023-05-09T19:28:56.369Z,38.97
2023-05-09T19:31:26.528Z,39.18
2023-05-09T19:33:56.749Z,39.14
2023-05-09T19:36:26.952Z,39.09
2023-05-09T19:38:57.144Z,39.25
2023-05-09T19:41:27.328Z,39.48
2023-05-09T19:44:00.332Z,39.52
2023-05-09T19:46:30.536Z,39.56
2023-05-09T19:49:00.682Z,39.62
2023-05-09T19:51:31.233Z,39.01
2023-05-09T19:54:01.481Z,39.39
2023-05-09T19:56:31.769Z,39.25
2023-05-09T19:59:04.738Z,39.92
2023-05-09T20:01:34.950Z,39.94
2023-05-09T20:04:08.541Z,40.51
2023-05-09T20:06:45.621Z,40.16
2023-05-09T20:09:18.213Z,40.50
2023-05-09T20:11:48.712Z,40.25
2023-05-09T20:14:25.372Z,40.81
2023-05-09T20:16:56.294Z,40.62
2023-05-09T20:19:27.275Z,40.38
2023-05-09T20:21:58.008Z,40.70
2023-05-09T20:24:29.027Z,41.04
2023-05-09T20:26:59.702Z,40.99
2023-05-09T20:29:32.708Z,41.03
2023-05-09T20:32:03.186Z,40.97
2023-05-09T20:34:33.826Z,41.28
2023-05-09T20:37:04.367Z,41.40
2023-05-09T20:39:34.461Z,41.45
2023-05-09T20:42:06.266Z,41.62
2023-05-09T20:44:42.245Z,41.43
2023-05-09T20:47:13.059Z,41.66
2023-05-09T20:49:43.469Z,41.91
2023-05-09T20:52:13.903Z,41.73
2023-05-09T20:54:47.651Z,41.62
2023-05-09T20:57:18.547Z,41.97
2023-05-09T20:59:51.678Z,41.95
2023-05-09T21:02:22.287Z,42.05
2023-05-09T21:04:52.814Z,42.24
2023-05-09T21:07:23.906Z,42.39
2023-05-09T21:09:54.477Z,42.61
2023-05-09T21:12:25.043Z,42.56
2023-05-09T21:14:58.108Z,42.54
2023-05-09T21:17:29.144Z,42.71
2023-05-09T21:19:59.813Z,42.68
2023-05-09T21:22:30.205Z,42.65
2023-05-09T21:25:01.241Z,43.00
2023-05-09T21:27:33.779Z,42.80
2023-05-09T21:30:12.173Z,43.16
2023-05-09T21:32:45.541Z,43.10
2023-05-09T21:35:15.993Z,43.21
2023-05-09T21:37:46.462Z,43.55
2023-05-09T21:40:17.251Z,43.62
2023-05-09T21:42:47.782Z,43.43
2023-05-09T21:45:21.238Z,43.71
2023-05-09T21:47:51.553Z,43.76
2023-05-09T21:50:22.045Z,43.57
2023-05-09T21:52:52.646Z,43.69
2023-05-09T21:55:22.932Z,43.80
2023-05-09T21:57:53.148Z,43.75
2023-05-09T22:00:25.912Z,43.92
2023-05-09T22:02:56.322Z,43.64
2023-05-09T22:05:26.740Z,44.03
2023-05-09T22:07:56.944Z,44.17
2023-05-09T22:10:27.101Z,43.84
2023-05-09T22:12:57.316Z,44.07
2023-05-09T22:15:30.147Z,44.09
2023-05-09T22:18:00.293Z,43.96
2023-05-09T22:20:30.698Z,44.00
2023-05-09T22:23:01.060Z,44.23
2023-05-09T22:25:31.383Z,44.47
2023-05-09T22:28:01.644Z,44.70
2023-05-09T22:30:35.117Z,44.76
2023-05-09T22:33:05.313Z,44.88
2023-05-09T22:35:35.716Z,45.42
2023-05-09T22:38:06.851Z,45.32
2023-05-09T22:40:37.457Z,44.99
2023-05-09T22:43:10.756Z,45.28
2023-05-09T22:45:44.109Z,45.49
2023-05-09T22:48:14.206Z,45.64
2023-05-09T22:50:44.396Z,45.91
2023-05-09T22:53:14.989Z,46.20
2023-05-09T22:55:45.252Z,46.18
2023-05-09T22:58:15.432Z,46.00
2023-05-09T23:00:48.257Z,46.32
2023-05-09T23:03:18.482Z,46.44
2023-05-09T23:05:48.858Z,46.46
2023-05-09T23:08:19.175Z,46.50
2023-05-09T23:10:49.456Z,46.52
2023-05-09T23:13:19.826Z,46.52
2023-05-09T23:15:53.178Z,46.74
2023-05-09T23:18:28.359Z,46.77
2023-05-09T23:21:01.471Z,46.91
2023-05-09T23:23:31.905Z,47.13
2023-05-09T23:26:02.101Z,47.07
2023-05-09T23:28:32.288Z,47.28
2023-05-09T23:31:06.979Z,47.14
2023-05-09T23:33:37.320Z,47.28
2023-05-09T23:36:07.925Z,47.34
2023-05-09T23:38:38.349Z,47.51
2023-05-09T23:41:08.643Z,47.67
2023-05-09T23:43:38.906Z,47.52
2023-05-09T23:46:11.887Z,47.94
2023-05-09T23:48:44.128Z,48.45
2023-05-09T23:51:14.465Z,48.07
2023-05-09T23:53:44.633Z,48.44
2023-05-09T23:56:15.174Z,48.11
2023-05-09T23:58:45.304Z,48.61
